RJAA Airport Information

Runway Information
Runway 16L Length 7152 ft width 196 ft
Elevation 135 ft Threshold 190 ft Heading 150
Runway 34R Length 7152 ft Width 196 ft
Elevation 141 ft Threshold 190 ft Heading 330
Runway 16R Length 13123 ft width 196 ft
Elevation 130 ft Threshold 0 ft Heading 150
Runway 34L Length 13123 ft Width 196 ft
Elevation 139 ft Threshold 2460 ft Heading 330
Airport Frequencies
Type APP Name TOKYO APP Frequency 124.4 MHZ
Type ATIS Name ATIS Frequency 128.25 MHZ
Type CLD Name CLNC DEL Frequency 121.9 MHZ
Type CLR Name CLNC DEL Frequency 121.65 MHZ
Type DEP Name TOKYO DEP Frequency 124.2 MHZ
Type GND Name Frequency 121.85 MHZ
Type GND Name GND Frequency 121.95 MHZ
Type RDR Name TOKYO RDR Frequency 120.2 MHZ
Type RMP Name RAMP Frequency 121.6 MHZ
Type RMP Name RAMP Frequency 121.75 MHZ
Type TCA Name TOKYO TCA Frequency 119.45 MHZ
Type TWR Name TWR Frequency 118.2 MHZ
Type TWR Name Frequency 118.35 MHZ
Airport Navaids
Type VOR-DME Name Narita Frequency 117900 KHZ
Type VOR-DME Name Sakura Frequency 112700 KHZ
Airport Weather Information & NOTAM
ADDS - METARS form results

(1812 UTC 16 May 2022)
Data provider http://aviationweather.gov/metar/data/
 
METAR text: RJAA 161800Z AUTO 30004KT 9999 SCT016 BKN020 BKN022 14/14 Q1012 TEMPO FEW003 BKN005 RMK A2990
Conditions at: RJAA (NARITA INTL , JP) observed 1800 UTC 16 May 2022
Temperature: 14.0°C (57°F)
Dewpoint: 14.0°C (57°F) [RH = 100%]
Pressure (altimeter): 29.88 inches Hg (1012.0 mb)
Winds: from the WNW (300 degrees) at 5 MPH (4 knots; 2.1 m/s)
Visibility: 6 or more miles (10+ km)
Ceiling: 2000 feet AGL
Clouds: scattered clouds at 1600 feet AGL
broken clouds at 2000 feet AGL
broken clouds at 2200 feet AGL
Weather: no significant weather observed at this time

METAR text: RJAA 161730Z AUTO 28004KT 9999 FEW003 OVC016 14/14 Q1012 TEMPO FEW003 BKN005
Conditions at: RJAA (NARITA INTL , JP) observed 1730 UTC 16 May 2022
Temperature: 14.0°C (57°F)
Dewpoint: 14.0°C (57°F) [RH = 100%]
Pressure (altimeter): 29.88 inches Hg (1012.0 mb)
Winds: from the W (280 degrees) at 5 MPH (4 knots; 2.1 m/s)
Visibility: 6 or more miles (10+ km)
Ceiling: 1600 feet AGL
Clouds: few clouds at 300 feet AGL
overcast cloud deck at 1600 feet AGL
Weather: no significant weather observed at this time

METAR text: RJAA 161728Z AUTO 28004KT 9999 FEW003 SCT009 OVC016 14/14 Q1012 RMK A2990
Conditions at: RJAA (NARITA INTL , JP) observed 1728 UTC 16 May 2022
Temperature: 14.0°C (57°F)
Dewpoint: 14.0°C (57°F) [RH = 100%]
Pressure (altimeter): 29.88 inches Hg (1012.0 mb)
Winds: from the W (280 degrees) at 5 MPH (4 knots; 2.1 m/s)
Visibility: 6 or more miles (10+ km)
Ceiling: 1600 feet AGL
Clouds: few clouds at 300 feet AGL
scattered clouds at 900 feet AGL
overcast cloud deck at 1600 feet AGL
Weather: no significant weather observed at this time

METAR text: RJAA 161722Z AUTO 28003KT 240V310 9999 FEW003 BKN009 OVC016 14/14 Q1012 RMK A2990
Conditions at: RJAA (NARITA INTL , JP) observed 1722 UTC 16 May 2022
Temperature: 14.0°C (57°F)
Dewpoint: 14.0°C (57°F) [RH = 100%]
Pressure (altimeter): 29.88 inches Hg (1012.0 mb)
Winds: from the W (280 degrees) at 3 MPH (3 knots; 1.5 m/s)
Visibility: 6 or more miles (10+ km)
Ceiling: 900 feet AGL
Clouds: few clouds at 300 feet AGL
broken clouds at 900 feet AGL
overcast cloud deck at 1600 feet AGL
Weather: no significant weather observed at this time

Forecast for: RJAA (NARITA INTL , JP)
Text: TAF RJAA 161705Z 1618/1800 36006KT 9999 FEW010 BKN040
Forecast period: 1800 UTC 16 May 2022 to 0300 UTC 17 May 2022
Forecast type: FROM: standard forecast or significant change
Winds: from the N (360 degrees) at 7 MPH (6 knots; 3.1 m/s)
Visibility: 6 or more miles (10+ km)
Ceiling: 4000 feet AGL
Clouds: few clouds at 1000 feet AGL
broken clouds at 4000 feet AGL
Weather: no significant weather forecast for this period
Text: TEMPO 1618/1622 4000 BR FEW003 BKN005
Forecast period: 1800 to 2200 UTC 16 May 2022
Forecast type: TEMPORARY: The following changes expected for less than half the time period
Visibility: 2.49 miles (4.01 km)
Ceiling: 500 feet AGL
Clouds: few clouds at 300 feet AGL
broken clouds at 500 feet AGL
Weather: BR  (mist)
Text: BECMG 1703/1705 10006KT
Forecast period: 0300 to 0900 UTC 17 May 2022
Forecast type: BECOMING: Conditions expected to become as follows by 0500 UTC 17 May 2022
Winds: from the E (100 degrees) at 7 MPH (6 knots; 3.1 m/s)
Visibility: 6 or more miles (10+ km)
Ceiling: 4000 feet AGL
Clouds: few clouds at 1000 feet AGL
broken clouds at 4000 feet AGL
Weather: no significant weather forecast for this period
Text: BECMG 1709/1712 36004KT
Forecast period: 0900 UTC 17 May 2022 to 0000 UTC 18 May 2022
Forecast type: BECOMING: Conditions expected to become as follows by 1200 UTC 17 May 2022
Winds: from the N (360 degrees) at 5 MPH (4 knots; 2.1 m/s)
Visibility: 6 or more miles (10+ km)
Ceiling: 4000 feet AGL
Clouds: few clouds at 1000 feet AGL
broken clouds at 4000 feet AGL
Weather: no significant weather forecast for this period
Text: TEMPO 1715/1721 3000 BR FEW003 BKN005
Forecast period: 1500 to 2100 UTC 17 May 2022
Forecast type: TEMPORARY: The following changes expected for less than half the time period
Visibility: 1.86 miles (2.99 km)
Ceiling: 500 feet AGL
Clouds: few clouds at 300 feet AGL
broken clouds at 500 feet AGL
Weather: BR  (mist)